createdAt,value
2022-12-03T00:01:20.999Z,52.90
2022-12-03T00:03:48.587Z,45.90
2022-12-03T00:06:17.682Z,42.10
2022-12-03T00:08:45.180Z,46.30
2022-12-03T00:11:12.648Z,48.50
2022-12-03T00:13:40.154Z,46.20
2022-12-03T00:16:07.776Z,45.90
2022-12-03T00:18:35.262Z,44.80
2022-12-03T00:21:02.804Z,41.30
2022-12-03T00:23:30.270Z,47.60
2022-12-03T00:25:58.891Z,44.30
2022-12-03T00:28:26.344Z,45.20
2022-12-03T00:30:54.289Z,44.00
2022-12-03T00:33:22.636Z,44.00
2022-12-03T00:35:50.124Z,42.90
2022-12-03T00:38:17.907Z,44.70
2022-12-03T00:40:45.433Z,42.10
2022-12-03T00:43:12.991Z,44.00
2022-12-03T00:45:40.485Z,41.20
2022-12-03T00:48:07.982Z,45.20
2022-12-03T00:50:35.496Z,43.60
2022-12-03T00:53:03.117Z,42.30
2022-12-03T00:55:30.872Z,44.60
2022-12-03T00:57:58.414Z,42.30
2022-12-03T01:00:25.850Z,41.60
2022-12-03T01:02:54.089Z,40.50
2022-12-03T01:05:21.816Z,38.30
2022-12-03T01:07:49.395Z,34.80
2022-12-03T01:10:17.616Z,38.40
2022-12-03T01:12:45.607Z,43.70
2022-12-03T01:15:13.250Z,42.20
2022-12-03T01:17:40.749Z,42.50
2022-12-03T01:20:10.079Z,46.20
2022-12-03T01:22:37.789Z,43.50
2022-12-03T01:25:06.157Z,43.70
2022-12-03T01:27:33.684Z,37.00
2022-12-03T01:30:01.170Z,40.70
2022-12-03T01:32:28.667Z,38.30
2022-12-03T01:34:56.831Z,42.40
2022-12-03T01:37:26.866Z,41.70
2022-12-03T01:39:54.552Z,35.00
2022-12-03T01:42:26.225Z,40.10
2022-12-03T01:44:56.880Z,41.40
2022-12-03T01:47:29.857Z,41.10
2022-12-03T01:50:21.179Z,41.60
2022-12-03T01:52:49.223Z,41.60
2022-12-03T01:55:21.205Z,40.90
2022-12-03T01:57:52.657Z,43.50
2022-12-03T02:00:23.299Z,41.90
2022-12-03T02:02:55.038Z,42.20
2022-12-03T02:05:26.439Z,40.20
2022-12-03T02:07:54.309Z,43.80
2022-12-03T02:10:30.777Z,39.90
2022-12-03T02:13:03.135Z,43.30
2022-12-03T02:15:30.867Z,41.80
2022-12-03T02:17:58.481Z,36.50
2022-12-03T02:20:26.148Z,40.20
2022-12-03T02:22:56.617Z,41.00
2022-12-03T02:25:34.526Z,40.50
2022-12-03T02:28:03.887Z,42.10
2022-12-03T02:30:32.357Z,38.30
2022-12-03T02:33:00.975Z,46.00
2022-12-03T02:35:31.469Z,47.30
2022-12-03T02:38:05.935Z,40.40
2022-12-03T02:40:34.513Z,43.60
2022-12-03T02:43:04.084Z,39.40
2022-12-03T02:45:39.621Z,39.40
2022-12-03T02:48:16.063Z,44.40
2022-12-03T02:50:54.393Z,39.10
2022-12-03T02:53:30.824Z,39.00
2022-12-03T02:56:01.504Z,39.30
2022-12-03T02:58:32.762Z,37.60
2022-12-03T03:01:01.834Z,46.10
2022-12-03T03:03:32.393Z,42.00
2022-12-03T03:06:02.000Z,42.40
2022-12-03T03:08:30.843Z,40.20
2022-12-03T03:11:01.395Z,33.10
2022-12-03T03:13:31.108Z,41.80
2022-12-03T03:15:59.318Z,37.40
2022-12-03T03:18:26.972Z,38.60
2022-12-03T03:20:54.603Z,41.10
2022-12-03T03:23:23.966Z,39.10
2022-12-03T03:26:07.332Z,42.40
2022-12-03T03:28:38.997Z,37.60
2022-12-03T03:31:09.973Z,38.30
2022-12-03T03:33:43.513Z,37.60
2022-12-03T03:36:12.176Z,33.50
2022-12-03T03:38:41.269Z,35.20
2022-12-03T03:41:10.880Z,36.10
2022-12-03T03:43:40.399Z,43.40
2022-12-03T03:46:09.158Z,41.30
2022-12-03T03:48:37.169Z,37.20
2022-12-03T03:51:09.533Z,38.20
2022-12-03T03:53:41.291Z,39.50
2022-12-03T03:56:09.669Z,38.90
2022-12-03T03:58:38.168Z,38.90
2022-12-03T04:01:05.961Z,42.40
2022-12-03T04:03:34.514Z,36.90
2022-12-03T04:06:02.348Z,40.30
2022-12-03T04:08:30.710Z,37.20
2022-12-03T04:11:14.209Z,41.50
2022-12-03T04:13:41.666Z,38.10
2022-12-03T04:16:09.181Z,39.10
2022-12-03T04:18:42.803Z,40.80
2022-12-03T04:21:27.445Z,36.60
2022-12-03T04:23:55.231Z,40.00
2022-12-03T04:26:38.828Z,38.60
2022-12-03T04:29:06.400Z,45.40
2022-12-03T04:31:50.021Z,42.20
2022-12-03T04:34:33.684Z,41.20
2022-12-03T04:37:01.395Z,38.10
2022-12-03T04:39:29.043Z,40.20
2022-12-03T04:41:56.704Z,43.00
2022-12-03T04:44:40.194Z,47.80
2022-12-03T04:47:16.227Z,41.60
2022-12-03T04:49:46.535Z,40.50
2022-12-03T04:52:16.244Z,44.90
2022-12-03T04:54:43.926Z,35.70
2022-12-03T04:57:12.012Z,37.00
2022-12-03T04:59:40.019Z,42.70
2022-12-03T05:02:07.962Z,40.00
2022-12-03T05:04:35.877Z,33.90
2022-12-03T05:07:03.617Z,43.40
2022-12-03T05:09:31.276Z,43.40
2022-12-03T05:11:58.836Z,38.20
2022-12-03T05:14:26.287Z,41.40
2022-12-03T05:16:53.833Z,42.30
2022-12-03T05:19:41.459Z,42.70
2022-12-03T05:22:08.947Z,71.30
2022-12-03T05:24:36.430Z,47.20
2022-12-03T05:27:04.054Z,77.50
2022-12-03T05:29:31.524Z,49.60
2022-12-03T05:31:58.976Z,42.20
2022-12-03T05:34:26.512Z,43.70
2022-12-03T05:36:53.970Z,51.50
2022-12-03T05:39:21.966Z,38.90
2022-12-03T05:42:05.439Z,43.70
2022-12-03T05:44:32.922Z,45.60
2022-12-03T05:47:00.578Z,38.50
2022-12-03T05:49:28.083Z,42.50
2022-12-03T05:51:58.700Z,42.50
2022-12-03T05:54:26.500Z,45.80
2022-12-03T05:56:53.966Z,45.40
2022-12-03T05:59:21.486Z,40.90
2022-12-03T06:01:49.043Z,45.00
2022-12-03T06:04:16.512Z,44.90
2022-12-03T06:06:44.051Z,53.00
2022-12-03T06:09:11.614Z,40.60
2022-12-03T06:11:40.297Z,49.50
2022-12-03T06:14:08.362Z,44.60
2022-12-03T06:16:35.860Z,55.90
2022-12-03T06:19:03.368Z,52.80
2022-12-03T06:21:30.945Z,48.30
2022-12-03T06:23:58.498Z,41.80
2022-12-03T06:26:25.963Z,43.90
2022-12-03T06:28:53.415Z,45.90
2022-12-03T06:31:21.017Z,41.30
2022-12-03T06:33:48.578Z,44.10
2022-12-03T06:36:21.399Z,50.60
2022-12-03T06:38:50.493Z,50.30
2022-12-03T06:41:17.967Z,47.10
2022-12-03T06:43:45.663Z,44.60
2022-12-03T06:46:13.218Z,47.00
2022-12-03T06:48:40.750Z,50.50
2022-12-03T06:51:08.276Z,38.80
2022-12-03T06:53:35.795Z,42.10
2022-12-03T06:56:03.387Z,44.60
2022-12-03T06:58:30.917Z,39.70
2022-12-03T07:00:58.372Z,40.50
2022-12-03T07:03:25.915Z,42.30
2022-12-03T07:05:53.584Z,43.30
2022-12-03T07:08:21.127Z,38.20
2022-12-03T07:10:48.736Z,40.90
2022-12-03T07:13:16.384Z,41.30
2022-12-03T07:15:43.888Z,37.30
2022-12-03T07:18:11.423Z,43.00
2022-12-03T07:20:39.284Z,39.20
2022-12-03T07:23:06.772Z,35.90
2022-12-03T07:25:34.249Z,39.00
2022-12-03T07:28:01.759Z,41.70
2022-12-03T07:30:29.846Z,38.60
2022-12-03T07:32:57.394Z,41.10
2022-12-03T07:35:24.930Z,41.40
2022-12-03T07:37:52.449Z,42.90
2022-12-03T07:40:19.902Z,39.50
2022-12-03T07:42:47.396Z,42.80
2022-12-03T07:45:14.930Z,41.30
2022-12-03T07:47:42.385Z,38.50
2022-12-03T07:50:10.553Z,38.10
2022-12-03T07:52:38.046Z,33.90
2022-12-03T07:55:06.324Z,36.60
2022-12-03T07:57:33.802Z,40.90
2022-12-03T08:00:01.674Z,34.50
2022-12-03T08:02:29.314Z,41.30
2022-12-03T08:04:57.195Z,56.90
2022-12-03T08:07:24.842Z,31.40
2022-12-03T08:09:52.407Z,38.50
2022-12-03T08:12:44.497Z,38.90
2022-12-03T08:15:16.434Z,37.00
2022-12-03T08:17:45.934Z,40.30
2022-12-03T08:20:19.564Z,41.10
2022-12-03T08:22:50.025Z,40.30
2022-12-03T08:25:21.233Z,40.30
2022-12-03T08:27:49.150Z,45.20
2022-12-03T08:30:18.043Z,35.30
2022-12-03T08:32:45.830Z,35.00
2022-12-03T08:35:19.040Z,33.10
2022-12-03T08:37:46.537Z,35.10
2022-12-03T08:40:35.275Z,38.10
2022-12-03T08:43:11.904Z,32.30
2022-12-03T08:45:42.455Z,41.90
2022-12-03T08:48:24.337Z,71.70
2022-12-03T08:50:54.709Z,40.40
2022-12-03T08:53:30.227Z,37.00
2022-12-03T08:56:20.661Z,40.60
2022-12-03T08:59:00.568Z,38.80
2022-12-03T09:01:31.360Z,36.90
2022-12-03T09:04:16.940Z,38.50
2022-12-03T09:06:44.521Z,40.80
2022-12-03T09:09:11.993Z,36.30
2022-12-03T09:11:39.847Z,33.40
2022-12-03T09:14:07.329Z,37.10
2022-12-03T09:16:35.214Z,37.30
2022-12-03T09:19:02.814Z,43.60
2022-12-03T09:21:30.281Z,37.00
2022-12-03T09:23:57.788Z,36.50
2022-12-03T09:26:25.372Z,40.00
2022-12-03T09:28:53.152Z,39.40
2022-12-03T09:31:20.772Z,35.30
2022-12-03T09:33:48.807Z,30.60
2022-12-03T09:36:16.289Z,34.60
2022-12-03T09:38:47.613Z,38.40
2022-12-03T09:41:15.480Z,33.80
2022-12-03T09:44:03.135Z,39.80
2022-12-03T09:46:31.418Z,38.60
2022-12-03T09:49:00.995Z,36.00
2022-12-03T09:51:32.996Z,36.00
2022-12-03T09:54:03.691Z,39.40
2022-12-03T09:56:31.764Z,52.90
2022-12-03T09:58:59.669Z,39.50
2022-12-03T10:01:30.319Z,39.50
2022-12-03T10:03:58.678Z,41.30
2022-12-03T10:06:26.294Z,35.10
2022-12-03T10:08:55.452Z,38.60
2022-12-03T10:11:25.367Z,33.80
2022-12-03T10:13:56.003Z,37.50
2022-12-03T10:16:24.776Z,36.00
2022-12-03T10:18:55.922Z,38.00
2022-12-03T10:21:36.397Z,35.40
2022-12-03T10:24:25.922Z,36.90
2022-12-03T10:26:56.505Z,34.20
2022-12-03T10:29:33.279Z,29.60
2022-12-03T10:32:03.734Z,34.40
2022-12-03T10:34:35.808Z,34.60
2022-12-03T10:37:13.377Z,36.10
2022-12-03T10:40:09.293Z,43.40
2022-12-03T10:42:39.922Z,45.30
2022-12-03T10:45:22.557Z,45.60
2022-12-03T10:48:13.684Z,35.00
2022-12-03T10:50:51.082Z,37.70
2022-12-03T10:53:20.741Z,34.20
2022-12-03T10:55:51.295Z,34.40
2022-12-03T10:58:22.972Z,39.50
2022-12-03T11:00:52.635Z,37.20
2022-12-03T11:03:23.064Z,35.30
2022-12-03T11:05:51.956Z,36.40
2022-12-03T11:08:25.352Z,39.50
2022-12-03T11:11:00.069Z,37.30
2022-12-03T11:13:33.778Z,37.50
2022-12-03T11:16:03.050Z,36.10
2022-12-03T11:18:36.733Z,37.30
2022-12-03T11:21:07.887Z,35.70
2022-12-03T11:23:51.366Z,241.90
2022-12-03T11:26:38.787Z,323.60
2022-12-03T11:29:14.346Z,322.50
2022-12-03T11:31:45.192Z,174.20
2022-12-03T11:34:19.583Z,111.50
2022-12-03T11:37:09.220Z,52.70
2022-12-03T11:39:53.395Z,156.30
2022-12-03T11:42:25.323Z,1025.80
2022-12-03T11:45:08.921Z,484.90
2022-12-03T11:47:42.975Z,999.90
2022-12-03T11:50:39.720Z,328.40
2022-12-03T11:53:07.765Z,88.90
2022-12-03T11:55:44.257Z,275.70
2022-12-03T11:58:29.345Z,510.00
2022-12-03T12:00:59.003Z,385.60
2022-12-03T12:03:33.313Z,57.80
2022-12-03T12:06:08.992Z,40.00
2022-12-03T12:08:55.608Z,39.00
2022-12-03T12:11:27.713Z,38.10
2022-12-03T12:13:58.220Z,47.90
2022-12-03T12:16:42.308Z,48.60
2022-12-03T12:19:43.030Z,1530.90
2022-12-03T12:22:27.511Z,787.20
2022-12-03T12:24:59.220Z,485.40
2022-12-03T12:27:35.799Z,89.10
2022-12-03T12:30:21.670Z,90.30
2022-12-03T12:33:01.632Z,61.50
2022-12-03T12:35:32.926Z,49.70
2022-12-03T12:38:06.599Z,56.00
2022-12-03T12:40:36.540Z,61.90
2022-12-03T12:43:20.286Z,40.70
2022-12-03T12:45:53.753Z,43.80
2022-12-03T12:48:31.930Z,37.60
2022-12-03T12:50:59.833Z,42.80
2022-12-03T12:53:32.685Z,47.60
2022-12-03T12:56:22.452Z,54.00
2022-12-03T12:58:50.409Z,42.20
2022-12-03T13:01:27.526Z,48.20
2022-12-03T13:03:55.568Z,59.40
2022-12-03T13:06:29.862Z,42.60
2022-12-03T13:09:00.984Z,39.00
2022-12-03T13:11:47.388Z,46.90
2022-12-03T13:14:16.578Z,38.90
2022-12-03T13:16:45.031Z,42.90
2022-12-03T13:19:31.134Z,42.50
2022-12-03T13:22:01.598Z,53.60
2022-12-03T13:24:36.918Z,45.70
2022-12-03T13:27:20.393Z,45.10
2022-12-03T13:29:55.324Z,129.30
2022-12-03T13:32:22.897Z,572.70
2022-12-03T13:34:50.571Z,681.20
2022-12-03T13:37:28.122Z,185.20
2022-12-03T13:40:05.374Z,63.60
2022-12-03T13:42:39.040Z,55.00
2022-12-03T13:45:24.776Z,52.90
2022-12-03T13:47:58.749Z,89.60
2022-12-03T13:50:26.164Z,140.50
2022-12-03T13:52:54.517Z,52.90
2022-12-03T13:55:29.739Z,42.40
2022-12-03T13:57:57.692Z,64.70
2022-12-03T14:00:25.156Z,131.00
2022-12-03T14:02:52.715Z,39.90
2022-12-03T14:05:21.124Z,42.00
2022-12-03T14:07:48.840Z,41.20
2022-12-03T14:10:16.883Z,40.20
2022-12-03T14:12:44.335Z,36.60
2022-12-03T14:15:11.823Z,39.10
2022-12-03T14:17:39.336Z,33.70
2022-12-03T14:20:08.199Z,38.30
2022-12-03T14:22:38.059Z,114.30
2022-12-03T14:25:06.964Z,66.60
2022-12-03T14:27:34.848Z,38.60
2022-12-03T14:30:03.588Z,37.20
2022-12-03T14:32:31.501Z,42.90
2022-12-03T14:34:58.994Z,41.50
2022-12-03T14:37:26.457Z,44.30
2022-12-03T14:39:54.514Z,40.70
2022-12-03T14:42:22.279Z,36.00
2022-12-03T14:44:51.742Z,50.90
2022-12-03T14:47:22.634Z,40.10
2022-12-03T14:49:51.144Z,249.70
2022-12-03T14:52:19.328Z,169.00
2022-12-03T14:54:46.818Z,653.40
2022-12-03T14:57:15.325Z,295.80
2022-12-03T14:59:44.140Z,260.60
2022-12-03T15:02:12.287Z,121.80
2022-12-03T15:04:41.420Z,49.10
2022-12-03T15:07:09.464Z,165.90
2022-12-03T15:09:37.026Z,74.60
2022-12-03T15:12:04.847Z,52.80
2022-12-03T15:14:32.343Z,43.70
2022-12-03T15:16:59.896Z,43.80
2022-12-03T15:19:27.469Z,46.70
2022-12-03T15:21:54.916Z,125.00
2022-12-03T15:24:22.451Z,79.00
2022-12-03T15:26:52.120Z,72.20
2022-12-03T15:29:20.524Z,44.20
2022-12-03T15:31:48.125Z,63.10
2022-12-03T15:34:20.604Z,202.50
2022-12-03T15:36:51.148Z,283.20
2022-12-03T15:39:19.254Z,86.00
2022-12-03T15:41:47.063Z,140.40
2022-12-03T15:44:14.547Z,108.80
2022-12-03T15:46:42.117Z,54.50
2022-12-03T15:49:09.779Z,84.50
2022-12-03T15:51:37.251Z,44.60
2022-12-03T15:54:05.350Z,39.60
2022-12-03T15:56:35.598Z,60.50
2022-12-03T15:59:03.874Z,71.30
2022-12-03T16:01:31.570Z,85.40
2022-12-03T16:03:59.206Z,75.80
2022-12-03T16:06:26.682Z,50.20
2022-12-03T16:08:54.226Z,48.60
2022-12-03T16:11:21.837Z,159.70
2022-12-03T16:13:49.317Z,321.90
2022-12-03T16:16:16.883Z,145.40
2022-12-03T16:18:44.455Z,163.30
2022-12-03T16:21:11.934Z,73.40
2022-12-03T16:23:39.449Z,53.10
2022-12-03T16:26:07.179Z,41.70
2022-12-03T16:28:34.633Z,40.70
2022-12-03T16:31:02.191Z,49.10
2022-12-03T16:33:29.771Z,64.40
2022-12-03T16:35:57.335Z,59.90
2022-12-03T16:38:24.842Z,129.60
2022-12-03T16:40:52.429Z,73.10
2022-12-03T16:43:19.990Z,83.90
2022-12-03T16:46:03.498Z,58.20
2022-12-03T16:48:31.144Z,53.20
2022-12-03T16:50:58.684Z,248.60
2022-12-03T16:53:26.228Z,57.40
2022-12-03T16:55:53.688Z,43.30
2022-12-03T16:58:21.510Z,50.10
2022-12-03T17:00:49.609Z,45.90
2022-12-03T17:03:20.074Z,46.00
2022-12-03T17:05:47.675Z,50.50
2022-12-03T17:08:16.531Z,106.20
2022-12-03T17:10:44.547Z,343.70
2022-12-03T17:13:12.481Z,780.70
2022-12-03T17:15:40.576Z,1752.40
2022-12-03T17:18:08.557Z,1280.10
2022-12-03T17:20:37.200Z,1358.60
2022-12-03T17:23:04.713Z,489.00
2022-12-03T17:25:32.757Z,530.70
2022-12-03T17:28:01.203Z,132.20
2022-12-03T17:30:28.687Z,64.30
2022-12-03T17:32:56.483Z,52.00
2022-12-03T17:35:25.046Z,48.60
2022-12-03T17:37:52.572Z,48.20
2022-12-03T17:40:20.130Z,48.20
2022-12-03T17:42:47.627Z,51.70
2022-12-03T17:45:15.170Z,49.70
2022-12-03T17:47:42.650Z,53.60
2022-12-03T17:50:10.507Z,64.80
2022-12-03T17:52:37.988Z,113.50
2022-12-03T17:55:12.791Z,59.10
2022-12-03T17:57:42.108Z,44.90
2022-12-03T18:00:10.117Z,47.00
2022-12-03T18:02:37.656Z,457.90
2022-12-03T18:05:05.450Z,93.30
2022-12-03T18:07:33.035Z,50.50
2022-12-03T18:10:00.803Z,53.10
2022-12-03T18:12:28.306Z,56.80
2022-12-03T18:14:55.771Z,48.60
2022-12-03T18:17:23.263Z,60.60
2022-12-03T18:19:50.853Z,55.40
2022-12-03T18:22:19.120Z,48.60
2022-12-03T18:24:51.491Z,48.10
2022-12-03T18:27:23.829Z,55.50
2022-12-03T18:29:51.781Z,59.50
2022-12-03T18:32:29.388Z,79.70
2022-12-03T18:34:58.026Z,57.70
2022-12-03T18:37:27.875Z,97.20
2022-12-03T18:39:57.573Z,54.70
2022-12-03T18:42:25.842Z,71.20
2022-12-03T18:44:55.250Z,57.40
2022-12-03T18:47:26.609Z,70.00
2022-12-03T18:49:56.365Z,51.30
2022-12-03T18:52:25.193Z,52.50
2022-12-03T18:54:53.194Z,50.50
2022-12-03T18:57:20.705Z,53.30
2022-12-03T18:59:48.231Z,51.60
2022-12-03T19:02:53.704Z,48.90
2022-12-03T19:05:05.687Z,51.70
2022-12-03T19:07:33.463Z,60.30
2022-12-03T19:10:01.088Z,61.60
2022-12-03T19:12:28.675Z,57.60
2022-12-03T19:14:56.425Z,74.10
2022-12-03T19:17:24.224Z,61.90
2022-12-03T19:19:51.907Z,63.50
2022-12-03T19:22:19.692Z,60.80
2022-12-03T19:24:47.175Z,70.60
2022-12-03T19:27:15.039Z,66.50
2022-12-03T19:29:42.511Z,56.80
2022-12-03T19:32:10.043Z,61.40
2022-12-03T19:34:38.089Z,60.90
2022-12-03T19:37:05.572Z,59.80
2022-12-03T19:39:33.171Z,69.80
2022-12-03T19:42:00.714Z,56.80
2022-12-03T19:44:28.196Z,62.30
2022-12-03T19:46:57.170Z,61.40
2022-12-03T19:49:25.532Z,65.50
2022-12-03T19:51:53.083Z,73.40
2022-12-03T19:54:20.598Z,69.80
2022-12-03T19:56:48.125Z,96.60
2022-12-03T19:59:15.649Z,77.50
2022-12-03T20:01:43.683Z,65.50
2022-12-03T20:04:12.363Z,65.40
2022-12-03T20:06:40.256Z,63.00
2022-12-03T20:09:11.954Z,69.10
2022-12-03T20:11:41.194Z,71.30
2022-12-03T20:14:12.266Z,72.80
2022-12-03T20:16:40.000Z,68.80
2022-12-03T20:19:10.064Z,62.80
2022-12-03T20:21:38.817Z,77.00
2022-12-03T20:24:08.449Z,67.10
2022-12-03T20:26:35.966Z,64.20
2022-12-03T20:29:03.650Z,77.00
2022-12-03T20:31:32.303Z,65.50
2022-12-03T20:34:03.317Z,79.00
2022-12-03T20:36:32.298Z,65.60
2022-12-03T20:39:02.762Z,66.50
2022-12-03T20:41:30.343Z,59.90
2022-12-03T20:43:57.961Z,66.10
2022-12-03T20:46:31.045Z,66.90
2022-12-03T20:48:59.029Z,59.30
2022-12-03T20:51:29.722Z,64.40
2022-12-03T20:53:58.566Z,72.00
2022-12-03T20:56:31.077Z,65.10
2022-12-03T20:59:04.923Z,62.60
2022-12-03T21:01:33.202Z,61.00
2022-12-03T21:04:00.853Z,65.30
2022-12-03T21:06:29.908Z,64.20
2022-12-03T21:08:59.026Z,67.40
2022-12-03T21:11:29.966Z,74.40
2022-12-03T21:13:58.911Z,63.10
2022-12-03T21:16:59.412Z,69.80
2022-12-03T21:19:18.530Z,77.70
2022-12-03T21:21:46.016Z,70.40
2022-12-03T21:24:13.868Z,73.50
2022-12-03T21:26:41.440Z,80.80
2022-12-03T21:29:09.586Z,61.00
2022-12-03T21:31:38.388Z,68.80
2022-12-03T21:34:06.007Z,72.90
2022-12-03T21:36:33.484Z,76.60
2022-12-03T21:39:01.079Z,72.50
2022-12-03T21:41:28.540Z,68.10
2022-12-03T21:43:56.073Z,68.30
2022-12-03T21:47:12.204Z,81.50
2022-12-03T21:49:10.988Z,69.80
2022-12-03T21:51:38.506Z,67.60
2022-12-03T21:54:05.980Z,66.40
2022-12-03T21:56:33.520Z,70.40
2022-12-03T21:59:01.053Z,75.30
2022-12-03T22:01:28.637Z,81.50
2022-12-03T22:03:56.295Z,73.90
2022-12-03T22:06:23.989Z,72.90
2022-12-03T22:08:51.706Z,67.20
2022-12-03T22:11:22.045Z,78.00
2022-12-03T22:13:49.854Z,65.00
2022-12-03T22:16:20.047Z,75.40
2022-12-03T22:18:48.366Z,80.60
2022-12-03T22:21:19.171Z,70.40
2022-12-03T22:23:46.707Z,82.90
2022-12-03T22:26:16.342Z,79.80
2022-12-03T22:28:45.855Z,82.80
2022-12-03T22:31:14.337Z,81.90
2022-12-03T22:33:43.330Z,77.00
2022-12-03T22:36:18.317Z,76.30
2022-12-03T22:38:47.843Z,65.80
2022-12-03T22:41:16.298Z,76.50
2022-12-03T22:43:45.123Z,66.70
2022-12-03T22:46:13.514Z,68.70
2022-12-03T22:48:43.095Z,63.90
2022-12-03T22:51:23.256Z,74.70
2022-12-03T22:53:55.604Z,73.10
2022-12-03T22:56:24.427Z,60.30
2022-12-03T22:58:51.980Z,72.50
2022-12-03T23:01:37.762Z,70.80
2022-12-03T23:04:06.598Z,69.80
2022-12-03T23:06:36.402Z,74.10
2022-12-03T23:09:06.114Z,70.70
2022-12-03T23:11:34.376Z,71.00
2022-12-03T23:14:02.334Z,67.00
2022-12-03T23:16:33.040Z,76.00
2022-12-03T23:19:02.790Z,68.60
2022-12-03T23:21:33.069Z,85.40
2022-12-03T23:24:02.590Z,79.70
2022-12-03T23:26:30.192Z,65.60
2022-12-03T23:28:57.666Z,71.30
2022-12-03T23:31:29.547Z,73.70
2022-12-03T23:33:58.663Z,75.70
2022-12-03T23:36:29.280Z,68.10
2022-12-03T23:38:56.907Z,69.40
2022-12-03T23:41:24.956Z,73.90
2022-12-03T23:43:53.077Z,64.90
2022-12-03T23:46:26.105Z,64.50
2022-12-03T23:48:54.393Z,63.70
2022-12-03T23:51:24.501Z,63.00
2022-12-03T23:53:54.176Z,68.20
2022-12-03T23:56:25.402Z,59.40
2022-12-03T23:58:52.959Z,67.00
